sensor_id;sensor_type;location;lat;lon;timestamp;P1;durP1;ratioP1;P2;durP2;ratioP2
12691;SDS011;6410;57.636;18.304;2022-07-23T00:01:30;7.25;;;3.92;;
12691;SDS011;6410;57.636;18.304;2022-07-23T00:04:03;5.68;;;3.10;;
12691;SDS011;6410;57.636;18.304;2022-07-23T00:06:31;9.18;;;4.03;;
12691;SDS011;6410;57.636;18.304;2022-07-23T00:09:00;6.28;;;3.50;;
12691;SDS011;6410;57.636;18.304;2022-07-23T00:11:28;4.60;;;3.92;;
12691;SDS011;6410;57.636;18.304;2022-07-23T00:13:57;6.40;;;3.65;;
12691;SDS011;6410;57.636;18.304;2022-07-23T00:16:25;4.45;;;4.05;;
12691;SDS011;6410;57.636;18.304;2022-07-23T00:18:53;3.58;;;3.15;;
12691;SDS011;6410;57.636;18.304;2022-07-23T00:21:23;5.18;;;3.25;;
12691;SDS011;6410;57.636;18.304;2022-07-23T00:23:51;3.08;;;2.80;;
12691;SDS011;6410;57.636;18.304;2022-07-23T00:26:20;3.03;;;2.58;;
12691;SDS011;6410;57.636;18.304;2022-07-23T00:28:48;2.80;;;2.53;;
12691;SDS011;6410;57.636;18.304;2022-07-23T00:31:16;4.53;;;3.20;;
12691;SDS011;6410;57.636;18.304;2022-07-23T00:33:45;3.65;;;2.72;;
12691;SDS011;6410;57.636;18.304;2022-07-23T00:36:13;3.92;;;3.00;;
12691;SDS011;6410;57.636;18.304;2022-07-23T00:38:43;2.97;;;2.50;;
12691;SDS011;6410;57.636;18.304;2022-07-23T00:41:11;3.30;;;2.90;;
12691;SDS011;6410;57.636;18.304;2022-07-23T00:43:39;2.90;;;2.70;;
12691;SDS011;6410;57.636;18.304;2022-07-23T00:46:07;3.25;;;2.58;;
12691;SDS011;6410;57.636;18.304;2022-07-23T00:48:36;3.00;;;2.75;;
12691;SDS011;6410;57.636;18.304;2022-07-23T00:51:07;3.67;;;2.90;;
12691;SDS011;6410;57.636;18.304;2022-07-23T00:53:36;5.40;;;2.90;;
12691;SDS011;6410;57.636;18.304;2022-07-23T00:56:06;4.28;;;3.10;;
12691;SDS011;6410;57.636;18.304;2022-07-23T00:58:35;2.95;;;2.72;;
12691;SDS011;6410;57.636;18.304;2022-07-23T01:01:04;4.72;;;3.13;;
12691;SDS011;6410;57.636;18.304;2022-07-23T01:03:32;4.55;;;3.20;;
12691;SDS011;6410;57.636;18.304;2022-07-23T01:06:01;4.45;;;3.17;;
12691;SDS011;6410;57.636;18.304;2022-07-23T01:08:29;5.53;;;3.35;;
12691;SDS011;6410;57.636;18.304;2022-07-23T01:10:57;5.20;;;3.05;;
12691;SDS011;6410;57.636;18.304;2022-07-23T01:13:27;3.85;;;3.38;;
12691;SDS011;6410;57.636;18.304;2022-07-23T01:15:56;6.15;;;3.20;;
12691;SDS011;6410;57.636;18.304;2022-07-23T01:18:24;4.32;;;3.30;;
12691;SDS011;6410;57.636;18.304;2022-07-23T01:20:52;4.20;;;3.08;;
12691;SDS011;6410;57.636;18.304;2022-07-23T01:23:22;3.50;;;2.80;;
12691;SDS011;6410;57.636;18.304;2022-07-23T01:25:51;6.28;;;3.70;;
12691;SDS011;6410;57.636;18.304;2022-07-23T01:28:21;4.18;;;3.03;;
12691;SDS011;6410;57.636;18.304;2022-07-23T01:30:49;4.72;;;3.22;;
12691;SDS011;6410;57.636;18.304;2022-07-23T01:33:17;4.70;;;3.30;;
12691;SDS011;6410;57.636;18.304;2022-07-23T01:35:46;5.50;;;3.28;;
12691;SDS011;6410;57.636;18.304;2022-07-23T01:38:14;5.22;;;3.22;;
12691;SDS011;6410;57.636;18.304;2022-07-23T01:40:44;5.88;;;3.17;;
12691;SDS011;6410;57.636;18.304;2022-07-23T01:43:19;9.95;;;3.28;;
12691;SDS011;6410;57.636;18.304;2022-07-23T01:45:50;6.35;;;3.50;;
12691;SDS011;6410;57.636;18.304;2022-07-23T01:48:19;3.95;;;3.55;;
12691;SDS011;6410;57.636;18.304;2022-07-23T01:50:47;4.97;;;3.08;;
12691;SDS011;6410;57.636;18.304;2022-07-23T01:53:15;6.00;;;3.58;;
12691;SDS011;6410;57.636;18.304;2022-07-23T01:55:45;5.15;;;3.72;;
12691;SDS011;6410;57.636;18.304;2022-07-23T01:58:13;4.22;;;2.85;;
12691;SDS011;6410;57.636;18.304;2022-07-23T02:00:42;3.90;;;3.13;;
12691;SDS011;6410;57.636;18.304;2022-07-23T02:03:10;4.95;;;3.33;;
12691;SDS011;6410;57.636;18.304;2022-07-23T02:05:38;5.60;;;3.47;;
12691;SDS011;6410;57.636;18.304;2022-07-23T02:08:06;3.47;;;3.10;;
12691;SDS011;6410;57.636;18.304;2022-07-23T02:10:35;5.40;;;3.75;;
12691;SDS011;6410;57.636;18.304;2022-07-23T02:13:04;6.25;;;3.72;;
12691;SDS011;6410;57.636;18.304;2022-07-23T02:15:33;7.07;;;3.60;;
12691;SDS011;6410;57.636;18.304;2022-07-23T02:18:02;3.47;;;3.25;;
12691;SDS011;6410;57.636;18.304;2022-07-23T02:20:30;3.90;;;3.60;;
12691;SDS011;6410;57.636;18.304;2022-07-23T02:22:58;6.75;;;3.60;;
12691;SDS011;6410;57.636;18.304;2022-07-23T02:25:27;4.35;;;3.78;;
12691;SDS011;6410;57.636;18.304;2022-07-23T02:27:55;5.50;;;3.88;;
12691;SDS011;6410;57.636;18.304;2022-07-23T02:30:27;4.45;;;3.55;;
12691;SDS011;6410;57.636;18.304;2022-07-23T02:32:55;5.88;;;4.18;;
12691;SDS011;6410;57.636;18.304;2022-07-23T02:35:24;5.32;;;3.47;;
12691;SDS011;6410;57.636;18.304;2022-07-23T02:37:52;5.25;;;3.70;;
12691;SDS011;6410;57.636;18.304;2022-07-23T02:40:20;9.20;;;4.18;;
12691;SDS011;6410;57.636;18.304;2022-07-23T02:42:48;6.35;;;3.90;;
12691;SDS011;6410;57.636;18.304;2022-07-23T02:45:17;12.52;;;3.80;;
12691;SDS011;6410;57.636;18.304;2022-07-23T02:47:46;4.47;;;3.65;;
12691;SDS011;6410;57.636;18.304;2022-07-23T02:50:15;4.38;;;3.40;;
12691;SDS011;6410;57.636;18.304;2022-07-23T02:52:43;7.57;;;3.88;;
12691;SDS011;6410;57.636;18.304;2022-07-23T02:55:11;3.88;;;3.15;;
12691;SDS011;6410;57.636;18.304;2022-07-23T02:57:40;3.85;;;3.42;;
12691;SDS011;6410;57.636;18.304;2022-07-23T03:00:08;5.85;;;3.72;;
12691;SDS011;6410;57.636;18.304;2022-07-23T03:02:37;7.78;;;3.38;;
12691;SDS011;6410;57.636;18.304;2022-07-23T03:05:07;7.22;;;4.20;;
12691;SDS011;6410;57.636;18.304;2022-07-23T03:07:36;5.15;;;3.45;;
12691;SDS011;6410;57.636;18.304;2022-07-23T03:10:04;5.22;;;3.55;;
12691;SDS011;6410;57.636;18.304;2022-07-23T03:12:33;5.53;;;3.80;;
12691;SDS011;6410;57.636;18.304;2022-07-23T03:15:01;4.88;;;3.55;;
12691;SDS011;6410;57.636;18.304;2022-07-23T03:17:30;6.68;;;3.17;;
12691;SDS011;6410;57.636;18.304;2022-07-23T03:19:58;6.25;;;3.58;;
12691;SDS011;6410;57.636;18.304;2022-07-23T03:22:28;5.47;;;3.75;;
12691;SDS011;6410;57.636;18.304;2022-07-23T03:24:56;7.65;;;3.25;;
12691;SDS011;6410;57.636;18.304;2022-07-23T03:27:27;5.38;;;3.63;;
12691;SDS011;6410;57.636;18.304;2022-07-23T03:29:57;8.85;;;3.45;;
12691;SDS011;6410;57.636;18.304;2022-07-23T03:32:26;4.70;;;2.88;;
12691;SDS011;6410;57.636;18.304;2022-07-23T03:34:55;5.13;;;2.95;;
12691;SDS011;6410;57.636;18.304;2022-07-23T03:37:24;4.43;;;2.72;;
12691;SDS011;6410;57.636;18.304;2022-07-23T03:39:54;8.40;;;3.20;;
12691;SDS011;6410;57.636;18.304;2022-07-23T03:42:23;4.68;;;2.90;;
12691;SDS011;6410;57.636;18.304;2022-07-23T03:44:51;4.07;;;2.85;;
12691;SDS011;6410;57.636;18.304;2022-07-23T03:47:19;3.65;;;2.85;;
12691;SDS011;6410;57.636;18.304;2022-07-23T03:49:49;7.40;;;3.72;;
12691;SDS011;6410;57.636;18.304;2022-07-23T03:52:17;3.88;;;3.13;;
12691;SDS011;6410;57.636;18.304;2022-07-23T03:54:46;5.70;;;3.40;;
12691;SDS011;6410;57.636;18.304;2022-07-23T03:57:15;5.80;;;3.38;;
12691;SDS011;6410;57.636;18.304;2022-07-23T03:59:44;5.95;;;3.00;;
12691;SDS011;6410;57.636;18.304;2022-07-23T04:02:12;8.27;;;3.65;;
12691;SDS011;6410;57.636;18.304;2022-07-23T04:04:40;7.00;;;3.88;;
12691;SDS011;6410;57.636;18.304;2022-07-23T04:07:08;4.75;;;3.35;;
12691;SDS011;6410;57.636;18.304;2022-07-23T04:09:38;4.55;;;3.70;;
12691;SDS011;6410;57.636;18.304;2022-07-23T04:12:11;4.35;;;3.15;;
12691;SDS011;6410;57.636;18.304;2022-07-23T04:14:41;6.57;;;3.63;;
12691;SDS011;6410;57.636;18.304;2022-07-23T04:17:09;4.15;;;3.20;;
12691;SDS011;6410;57.636;18.304;2022-07-23T04:19:38;5.35;;;3.28;;
12691;SDS011;6410;57.636;18.304;2022-07-23T04:22:08;3.78;;;3.47;;
12691;SDS011;6410;57.636;18.304;2022-07-23T04:24:36;5.70;;;3.20;;
12691;SDS011;6410;57.636;18.304;2022-07-23T04:27:05;3.33;;;2.90;;
12691;SDS011;6410;57.636;18.304;2022-07-23T04:29:33;5.78;;;3.22;;
12691;SDS011;6410;57.636;18.304;2022-07-23T04:32:03;5.63;;;3.20;;
12691;SDS011;6410;57.636;18.304;2022-07-23T04:34:32;6.40;;;2.92;;
12691;SDS011;6410;57.636;18.304;2022-07-23T04:37:00;4.82;;;3.55;;
12691;SDS011;6410;57.636;18.304;2022-07-23T04:39:29;4.40;;;2.90;;
12691;SDS011;6410;57.636;18.304;2022-07-23T04:41:57;5.60;;;3.28;;
12691;SDS011;6410;57.636;18.304;2022-07-23T04:44:25;5.38;;;3.45;;
12691;SDS011;6410;57.636;18.304;2022-07-23T04:46:53;6.97;;;3.65;;
12691;SDS011;6410;57.636;18.304;2022-07-23T04:49:23;3.40;;;3.03;;
12691;SDS011;6410;57.636;18.304;2022-07-23T04:51:51;4.25;;;2.75;;
12691;SDS011;6410;57.636;18.304;2022-07-23T04:54:20;4.13;;;3.33;;
12691;SDS011;6410;57.636;18.304;2022-07-23T04:56:48;3.20;;;2.85;;
12691;SDS011;6410;57.636;18.304;2022-07-23T04:59:16;3.60;;;3.30;;
12691;SDS011;6410;57.636;18.304;2022-07-23T05:01:44;6.07;;;3.55;;
12691;SDS011;6410;57.636;18.304;2022-07-23T05:04:13;4.85;;;3.47;;
12691;SDS011;6410;57.636;18.304;2022-07-23T05:06:43;4.22;;;3.13;;
12691;SDS011;6410;57.636;18.304;2022-07-23T05:09:11;3.58;;;3.30;;
12691;SDS011;6410;57.636;18.304;2022-07-23T05:11:39;4.18;;;3.25;;
12691;SDS011;6410;57.636;18.304;2022-07-23T05:14:07;4.20;;;3.10;;
12691;SDS011;6410;57.636;18.304;2022-07-23T05:16:38;5.50;;;3.50;;
12691;SDS011;6410;57.636;18.304;2022-07-23T05:19:07;5.57;;;3.72;;
12691;SDS011;6410;57.636;18.304;2022-07-23T05:21:35;6.07;;;3.35;;
12691;SDS011;6410;57.636;18.304;2022-07-23T05:24:05;5.72;;;3.53;;
12691;SDS011;6410;57.636;18.304;2022-07-23T05:26:34;3.97;;;3.50;;
12691;SDS011;6410;57.636;18.304;2022-07-23T05:29:02;8.20;;;3.67;;
12691;SDS011;6410;57.636;18.304;2022-07-23T05:31:31;5.28;;;3.10;;
12691;SDS011;6410;57.636;18.304;2022-07-23T05:33:59;5.35;;;3.38;;
12691;SDS011;6410;57.636;18.304;2022-07-23T05:36:28;4.53;;;3.20;;
12691;SDS011;6410;57.636;18.304;2022-07-23T05:38:56;5.47;;;3.35;;
12691;SDS011;6410;57.636;18.304;2022-07-23T05:41:26;3.25;;;2.95;;
12691;SDS011;6410;57.636;18.304;2022-07-23T05:43:54;4.78;;;3.00;;
12691;SDS011;6410;57.636;18.304;2022-07-23T05:46:23;4.00;;;3.63;;
12691;SDS011;6410;57.636;18.304;2022-07-23T05:48:51;4.45;;;3.17;;
12691;SDS011;6410;57.636;18.304;2022-07-23T05:51:20;4.40;;;3.10;;
12691;SDS011;6410;57.636;18.304;2022-07-23T05:53:48;4.43;;;3.42;;
12691;SDS011;6410;57.636;18.304;2022-07-23T05:56:19;4.22;;;3.20;;
12691;SDS011;6410;57.636;18.304;2022-07-23T05:58:48;5.10;;;3.20;;
12691;SDS011;6410;57.636;18.304;2022-07-23T06:01:17;3.85;;;3.10;;
12691;SDS011;6410;57.636;18.304;2022-07-23T06:03:45;5.35;;;3.30;;
12691;SDS011;6410;57.636;18.304;2022-07-23T06:06:13;3.63;;;3.10;;
12691;SDS011;6410;57.636;18.304;2022-07-23T06:08:41;5.35;;;3.67;;
12691;SDS011;6410;57.636;18.304;2022-07-23T06:11:10;4.95;;;3.63;;
12691;SDS011;6410;57.636;18.304;2022-07-23T06:13:38;4.10;;;3.33;;
12691;SDS011;6410;57.636;18.304;2022-07-23T06:16:08;6.05;;;3.58;;
12691;SDS011;6410;57.636;18.304;2022-07-23T06:18:37;4.85;;;3.38;;
12691;SDS011;6410;57.636;18.304;2022-07-23T06:21:05;3.08;;;2.67;;
12691;SDS011;6410;57.636;18.304;2022-07-23T06:23:53;5.55;;;3.70;;
12691;SDS011;6410;57.636;18.304;2022-07-23T06:26:21;3.95;;;3.15;;
12691;SDS011;6410;57.636;18.304;2022-07-23T06:28:50;3.28;;;3.08;;
12691;SDS011;6410;57.636;18.304;2022-07-23T06:31:19;3.65;;;3.28;;
12691;SDS011;6410;57.636;18.304;2022-07-23T06:33:48;3.70;;;3.40;;
12691;SDS011;6410;57.636;18.304;2022-07-23T06:36:16;4.32;;;3.05;;
12691;SDS011;6410;57.636;18.304;2022-07-23T06:38:46;4.75;;;3.97;;
12691;SDS011;6410;57.636;18.304;2022-07-23T06:41:14;3.53;;;3.22;;
12691;SDS011;6410;57.636;18.304;2022-07-23T06:43:42;3.63;;;3.33;;
12691;SDS011;6410;57.636;18.304;2022-07-23T06:46:11;4.72;;;3.63;;
12691;SDS011;6410;57.636;18.304;2022-07-23T06:48:40;3.45;;;3.15;;
12691;SDS011;6410;57.636;18.304;2022-07-23T06:51:09;3.40;;;3.13;;
12691;SDS011;6410;57.636;18.304;2022-07-23T06:53:37;3.70;;;3.30;;
12691;SDS011;6410;57.636;18.304;2022-07-23T06:56:05;3.53;;;2.90;;
12691;SDS011;6410;57.636;18.304;2022-07-23T06:58:34;4.05;;;3.03;;
12691;SDS011;6410;57.636;18.304;2022-07-23T07:01:02;3.30;;;2.75;;
12691;SDS011;6410;57.636;18.304;2022-07-23T07:03:31;3.90;;;2.95;;
12691;SDS011;6410;57.636;18.304;2022-07-23T07:06:00;2.80;;;2.60;;
12691;SDS011;6410;57.636;18.304;2022-07-23T07:08:29;3.97;;;3.22;;
12691;SDS011;6410;57.636;18.304;2022-07-23T07:10:57;3.75;;;2.97;;
12691;SDS011;6410;57.636;18.304;2022-07-23T07:13:26;3.58;;;3.30;;
12691;SDS011;6410;57.636;18.304;2022-07-23T07:15:54;3.05;;;2.80;;
12691;SDS011;6410;57.636;18.304;2022-07-23T07:18:22;3.60;;;3.20;;
12691;SDS011;6410;57.636;18.304;2022-07-23T07:20:50;3.13;;;2.83;;
12691;SDS011;6410;57.636;18.304;2022-07-23T07:23:23;4.18;;;3.25;;
12691;SDS011;6410;57.636;18.304;2022-07-23T07:25:56;4.47;;;4.00;;
12691;SDS011;6410;57.636;18.304;2022-07-23T07:28:24;4.25;;;3.35;;
12691;SDS011;6410;57.636;18.304;2022-07-23T07:30:53;5.50;;;4.07;;
12691;SDS011;6410;57.636;18.304;2022-07-23T07:33:24;5.68;;;4.15;;
12691;SDS011;6410;57.636;18.304;2022-07-23T07:35:52;3.97;;;3.63;;
12691;SDS011;6410;57.636;18.304;2022-07-23T07:38:21;3.72;;;3.35;;
12691;SDS011;6410;57.636;18.304;2022-07-23T07:40:51;3.78;;;3.47;;
12691;SDS011;6410;57.636;18.304;2022-07-23T07:43:19;4.45;;;3.20;;
12691;SDS011;6410;57.636;18.304;2022-07-23T07:45:47;4.78;;;3.72;;
12691;SDS011;6410;57.636;18.304;2022-07-23T07:48:16;3.35;;;3.08;;
12691;SDS011;6410;57.636;18.304;2022-07-23T07:50:45;4.80;;;3.00;;
12691;SDS011;6410;57.636;18.304;2022-07-23T07:53:15;3.85;;;3.60;;
12691;SDS011;6410;57.636;18.304;2022-07-23T07:55:43;3.72;;;3.03;;
12691;SDS011;6410;57.636;18.304;2022-07-23T07:58:18;4.22;;;3.08;;
12691;SDS011;6410;57.636;18.304;2022-07-23T08:00:46;6.00;;;3.72;;
12691;SDS011;6410;57.636;18.304;2022-07-23T08:03:15;4.53;;;2.92;;
12691;SDS011;6410;57.636;18.304;2022-07-23T08:05:45;3.47;;;3.08;;
12691;SDS011;6410;57.636;18.304;2022-07-23T08:08:13;4.05;;;3.63;;
12691;SDS011;6410;57.636;18.304;2022-07-23T08:10:42;4.15;;;3.50;;
12691;SDS011;6410;57.636;18.304;2022-07-23T08:13:12;3.40;;;2.72;;
12691;SDS011;6410;57.636;18.304;2022-07-23T08:15:43;3.17;;;2.95;;
12691;SDS011;6410;57.636;18.304;2022-07-23T08:18:12;3.83;;;3.53;;
12691;SDS011;6410;57.636;18.304;2022-07-23T08:20:40;3.65;;;3.33;;
12691;SDS011;6410;57.636;18.304;2022-07-23T08:23:09;4.03;;;3.63;;
12691;SDS011;6410;57.636;18.304;2022-07-23T08:25:38;4.97;;;3.25;;
12691;SDS011;6410;57.636;18.304;2022-07-23T08:28:08;2.88;;;2.67;;
12691;SDS011;6410;57.636;18.304;2022-07-23T08:30:37;3.92;;;3.50;;
12691;SDS011;6410;57.636;18.304;2022-07-23T08:33:08;5.15;;;3.80;;
12691;SDS011;6410;57.636;18.304;2022-07-23T08:35:56;3.78;;;3.33;;
12691;SDS011;6410;57.636;18.304;2022-07-23T08:38:25;4.63;;;3.30;;
12691;SDS011;6410;57.636;18.304;2022-07-23T08:40:55;3.70;;;3.40;;
12691;SDS011;6410;57.636;18.304;2022-07-23T08:43:26;3.55;;;3.25;;
12691;SDS011;6410;57.636;18.304;2022-07-23T08:45:56;3.92;;;3.63;;
12691;SDS011;6410;57.636;18.304;2022-07-23T08:48:31;4.18;;;3.30;;
12691;SDS011;6410;57.636;18.304;2022-07-23T08:51:02;3.83;;;3.40;;
12691;SDS011;6410;57.636;18.304;2022-07-23T08:53:34;4.45;;;3.55;;
12691;SDS011;6410;57.636;18.304;2022-07-23T08:56:04;4.25;;;3.80;;
12691;SDS011;6410;57.636;18.304;2022-07-23T08:58:35;4.00;;;3.58;;
12691;SDS011;6410;57.636;18.304;2022-07-23T09:01:04;4.03;;;3.72;;
12691;SDS011;6410;57.636;18.304;2022-07-23T09:03:34;3.63;;;3.28;;
12691;SDS011;6410;57.636;18.304;2022-07-23T09:06:04;5.03;;;3.63;;
12691;SDS011;6410;57.636;18.304;2022-07-23T09:08:34;5.00;;;3.20;;
12691;SDS011;6410;57.636;18.304;2022-07-23T09:11:03;4.18;;;3.83;;
12691;SDS011;6410;57.636;18.304;2022-07-23T09:13:36;3.97;;;3.67;;
12691;SDS011;6410;57.636;18.304;2022-07-23T09:16:07;4.15;;;3.85;;
12691;SDS011;6410;57.636;18.304;2022-07-23T09:18:45;4.55;;;4.00;;
12691;SDS011;6410;57.636;18.304;2022-07-23T09:21:24;4.00;;;3.58;;
12691;SDS011;6410;57.636;18.304;2022-07-23T09:23:55;4.03;;;3.72;;
12691;SDS011;6410;57.636;18.304;2022-07-23T09:26:27;4.68;;;3.95;;
12691;SDS011;6410;57.636;18.304;2022-07-23T09:29:05;4.13;;;3.83;;
12691;SDS011;6410;57.636;18.304;2022-07-23T09:31:45;4.25;;;3.85;;
12691;SDS011;6410;57.636;18.304;2022-07-23T09:34:17;4.78;;;4.32;;
12691;SDS011;6410;57.636;18.304;2022-07-23T09:36:49;5.22;;;4.10;;
12691;SDS011;6410;57.636;18.304;2022-07-23T09:39:24;4.43;;;4.13;;
12691;SDS011;6410;57.636;18.304;2022-07-23T09:41:55;4.35;;;3.90;;
12691;SDS011;6410;57.636;18.304;2022-07-23T09:44:24;4.18;;;3.88;;
12691;SDS011;6410;57.636;18.304;2022-07-23T09:46:57;4.63;;;4.13;;
12691;SDS011;6410;57.636;18.304;2022-07-23T09:49:29;4.82;;;3.90;;
12691;SDS011;6410;57.636;18.304;2022-07-23T09:51:58;3.95;;;3.65;;
12691;SDS011;6410;57.636;18.304;2022-07-23T09:54:35;4.20;;;3.47;;
12691;SDS011;6410;57.636;18.304;2022-07-23T09:57:06;4.72;;;3.65;;
12691;SDS011;6410;57.636;18.304;2022-07-23T09:59:37;4.75;;;3.88;;
12691;SDS011;6410;57.636;18.304;2022-07-23T10:02:07;4.20;;;3.90;;
12691;SDS011;6410;57.636;18.304;2022-07-23T10:04:38;4.00;;;3.70;;
12691;SDS011;6410;57.636;18.304;2022-07-23T10:07:08;5.30;;;3.92;;
12691;SDS011;6410;57.636;18.304;2022-07-23T10:09:37;4.22;;;4.00;;
12691;SDS011;6410;57.636;18.304;2022-07-23T10:12:09;5.43;;;3.83;;
12691;SDS011;6410;57.636;18.304;2022-07-23T10:14:52;4.53;;;4.13;;
12691;SDS011;6410;57.636;18.304;2022-07-23T10:17:21;4.40;;;4.10;;
12691;SDS011;6410;57.636;18.304;2022-07-23T10:19:51;4.22;;;3.88;;
12691;SDS011;6410;57.636;18.304;2022-07-23T10:22:19;4.38;;;4.07;;
12691;SDS011;6410;57.636;18.304;2022-07-23T10:24:53;5.20;;;4.50;;
12691;SDS011;6410;57.636;18.304;2022-07-23T10:30:25;4.15;;;3.90;;
12691;SDS011;6410;57.636;18.304;2022-07-23T10:33:09;4.07;;;3.67;;
12691;SDS011;6410;57.636;18.304;2022-07-23T10:35:49;4.82;;;4.43;;
12691;SDS011;6410;57.636;18.304;2022-07-23T10:38:27;3.83;;;3.50;;
12691;SDS011;6410;57.636;18.304;2022-07-23T10:41:00;4.47;;;4.07;;
12691;SDS011;6410;57.636;18.304;2022-07-23T10:43:30;5.75;;;4.53;;
12691;SDS011;6410;57.636;18.304;2022-07-23T10:54:52;4.95;;;4.55;;
12691;SDS011;6410;57.636;18.304;2022-07-23T10:57:22;4.80;;;4.40;;
12691;SDS011;6410;57.636;18.304;2022-07-23T11:02:49;4.45;;;4.15;;
12691;SDS011;6410;57.636;18.304;2022-07-23T11:05:19;4.70;;;4.30;;
12691;SDS011;6410;57.636;18.304;2022-07-23T11:10:50;4.35;;;4.05;;
12691;SDS011;6410;57.636;18.304;2022-07-23T11:13:26;4.97;;;4.65;;
12691;SDS011;6410;57.636;18.304;2022-07-23T11:19:04;5.35;;;4.38;;
12691;SDS011;6410;57.636;18.304;2022-07-23T11:21:42;4.55;;;4.22;;
12691;SDS011;6410;57.636;18.304;2022-07-23T11:24:19;4.50;;;4.20;;
12691;SDS011;6410;57.636;18.304;2022-07-23T11:27:03;4.95;;;4.55;;
12691;SDS011;6410;57.636;18.304;2022-07-23T11:32:24;4.93;;;4.53;;
12691;SDS011;6410;57.636;18.304;2022-07-23T11:34:57;4.40;;;4.10;;
12691;SDS011;6410;57.636;18.304;2022-07-23T11:40:14;4.18;;;3.92;;
12691;SDS011;6410;57.636;18.304;2022-07-23T11:42:51;4.57;;;4.28;;
12691;SDS011;6410;57.636;18.304;2022-07-23T11:45:23;4.75;;;4.35;;
12691;SDS011;6410;57.636;18.304;2022-07-23T11:47:53;4.38;;;4.03;;
12691;SDS011;6410;57.636;18.304;2022-07-23T11:50:23;4.47;;;4.13;;
12691;SDS011;6410;57.636;18.304;2022-07-23T11:52:52;6.05;;;4.32;;
12691;SDS011;6410;57.636;18.304;2022-07-23T11:55:22;4.15;;;3.83;;
12691;SDS011;6410;57.636;18.304;2022-07-23T11:57:51;4.68;;;4.30;;
12691;SDS011;6410;57.636;18.304;2022-07-23T12:00:21;4.70;;;4.25;;
12691;SDS011;6410;57.636;18.304;2022-07-23T12:02:54;5.18;;;4.18;;
12691;SDS011;6410;57.636;18.304;2022-07-23T12:05:26;4.07;;;3.67;;
12691;SDS011;6410;57.636;18.304;2022-07-23T12:07:55;4.00;;;3.70;;
12691;SDS011;6410;57.636;18.304;2022-07-23T12:10:27;4.05;;;3.72;;
12691;SDS011;6410;57.636;18.304;2022-07-23T12:12:57;3.92;;;3.53;;
12691;SDS011;6410;57.636;18.304;2022-07-23T12:15:27;6.13;;;3.97;;
12691;SDS011;6410;57.636;18.304;2022-07-23T12:17:58;3.65;;;3.33;;
12691;SDS011;6410;57.636;18.304;2022-07-23T12:20:30;3.92;;;3.47;;
12691;SDS011;6410;57.636;18.304;2022-07-23T12:23:00;4.43;;;3.45;;
12691;SDS011;6410;57.636;18.304;2022-07-23T12:25:32;3.90;;;3.35;;
12691;SDS011;6410;57.636;18.304;2022-07-23T12:28:03;4.32;;;3.95;;
12691;SDS011;6410;57.636;18.304;2022-07-23T12:30:33;4.57;;;3.55;;
12691;SDS011;6410;57.636;18.304;2022-07-23T12:33:05;4.95;;;3.78;;
12691;SDS011;6410;57.636;18.304;2022-07-23T12:35:36;4.88;;;3.88;;
12691;SDS011;6410;57.636;18.304;2022-07-23T12:38:08;3.95;;;3.63;;
12691;SDS011;6410;57.636;18.304;2022-07-23T12:40:41;3.38;;;3.08;;
12691;SDS011;6410;57.636;18.304;2022-07-23T12:43:12;4.57;;;3.17;;
12691;SDS011;6410;57.636;18.304;2022-07-23T12:45:47;6.38;;;4.00;;
12691;SDS011;6410;57.636;18.304;2022-07-23T12:48:19;4.05;;;3.38;;
12691;SDS011;6410;57.636;18.304;2022-07-23T12:50:50;4.82;;;3.60;;
12691;SDS011;6410;57.636;18.304;2022-07-23T12:53:21;8.27;;;3.78;;
12691;SDS011;6410;57.636;18.304;2022-07-23T12:55:56;4.15;;;3.42;;
12691;SDS011;6410;57.636;18.304;2022-07-23T12:58:44;5.50;;;3.63;;
12691;SDS011;6410;57.636;18.304;2022-07-23T13:01:26;5.60;;;3.10;;
12691;SDS011;6410;57.636;18.304;2022-07-23T13:04:00;4.95;;;4.03;;
12691;SDS011;6410;57.636;18.304;2022-07-23T13:06:38;4.70;;;3.85;;
12691;SDS011;6410;57.636;18.304;2022-07-23T13:09:08;4.90;;;3.58;;
12691;SDS011;6410;57.636;18.304;2022-07-23T13:11:40;5.32;;;3.85;;
12691;SDS011;6410;57.636;18.304;2022-07-23T13:14:08;5.38;;;4.05;;
12691;SDS011;6410;57.636;18.304;2022-07-23T13:16:37;4.68;;;3.10;;
12691;SDS011;6410;57.636;18.304;2022-07-23T13:19:07;4.47;;;3.83;;
12691;SDS011;6410;57.636;18.304;2022-07-23T13:21:38;3.50;;;3.20;;
12691;SDS011;6410;57.636;18.304;2022-07-23T13:24:10;5.22;;;4.00;;
12691;SDS011;6410;57.636;18.304;2022-07-23T13:26:41;4.10;;;3.80;;
12691;SDS011;6410;57.636;18.304;2022-07-23T13:29:13;4.57;;;3.45;;
12691;SDS011;6410;57.636;18.304;2022-07-23T13:31:45;3.90;;;3.50;;
12691;SDS011;6410;57.636;18.304;2022-07-23T13:34:14;5.65;;;3.33;;
12691;SDS011;6410;57.636;18.304;2022-07-23T13:36:43;4.57;;;3.47;;
12691;SDS011;6410;57.636;18.304;2022-07-23T13:39:12;3.63;;;3.17;;
12691;SDS011;6410;57.636;18.304;2022-07-23T13:41:41;4.70;;;3.55;;
12691;SDS011;6410;57.636;18.304;2022-07-23T13:44:16;5.93;;;3.25;;
12691;SDS011;6410;57.636;18.304;2022-07-23T13:46:47;3.80;;;3.40;;
12691;SDS011;6410;57.636;18.304;2022-07-23T13:49:16;4.43;;;3.60;;
12691;SDS011;6410;57.636;18.304;2022-07-23T13:51:45;7.05;;;4.10;;
12691;SDS011;6410;57.636;18.304;2022-07-23T13:54:13;3.92;;;3.53;;
12691;SDS011;6410;57.636;18.304;2022-07-23T13:56:43;4.43;;;4.00;;
12691;SDS011;6410;57.636;18.304;2022-07-23T13:59:12;3.83;;;3.50;;
12691;SDS011;6410;57.636;18.304;2022-07-23T14:01:40;7.38;;;4.22;;
12691;SDS011;6410;57.636;18.304;2022-07-23T14:04:29;4.05;;;3.63;;
12691;SDS011;6410;57.636;18.304;2022-07-23T14:06:57;4.00;;;3.47;;
12691;SDS011;6410;57.636;18.304;2022-07-23T14:09:26;4.30;;;3.90;;
12691;SDS011;6410;57.636;18.304;2022-07-23T14:11:57;5.88;;;4.53;;
12691;SDS011;6410;57.636;18.304;2022-07-23T14:14:26;4.00;;;3.70;;
12691;SDS011;6410;57.636;18.304;2022-07-23T14:16:54;4.20;;;3.90;;
12691;SDS011;6410;57.636;18.304;2022-07-23T14:19:23;4.07;;;3.80;;
12691;SDS011;6410;57.636;18.304;2022-07-23T14:21:52;4.30;;;3.83;;
12691;SDS011;6410;57.636;18.304;2022-07-23T14:24:20;4.72;;;4.40;;
12691;SDS011;6410;57.636;18.304;2022-07-23T14:26:48;5.32;;;4.15;;
12691;SDS011;6410;57.636;18.304;2022-07-23T14:29:18;4.50;;;4.20;;
12691;SDS011;6410;57.636;18.304;2022-07-23T14:31:46;4.65;;;4.25;;
12691;SDS011;6410;57.636;18.304;2022-07-23T14:34:15;4.18;;;3.88;;
12691;SDS011;6410;57.636;18.304;2022-07-23T14:36:53;5.80;;;4.45;;
12691;SDS011;6410;57.636;18.304;2022-07-23T14:39:22;4.95;;;4.65;;
12691;SDS011;6410;57.636;18.304;2022-07-23T14:41:51;4.80;;;4.40;;
12691;SDS011;6410;57.636;18.304;2022-07-23T14:44:20;5.82;;;5.43;;
12691;SDS011;6410;57.636;18.304;2022-07-23T14:46:49;5.28;;;4.80;;
12691;SDS011;6410;57.636;18.304;2022-07-23T14:49:17;5.13;;;4.78;;
12691;SDS011;6410;57.636;18.304;2022-07-23T14:51:46;5.95;;;5.55;;
12691;SDS011;6410;57.636;18.304;2022-07-23T14:54:14;5.65;;;5.15;;
12691;SDS011;6410;57.636;18.304;2022-07-23T14:56:43;6.38;;;5.78;;
12691;SDS011;6410;57.636;18.304;2022-07-23T14:59:11;5.75;;;5.30;;
12691;SDS011;6410;57.636;18.304;2022-07-23T15:01:41;7.93;;;5.82;;
12691;SDS011;6410;57.636;18.304;2022-07-23T15:04:10;5.18;;;4.68;;
12691;SDS011;6410;57.636;18.304;2022-07-23T15:06:58;5.00;;;4.60;;
12691;SDS011;6410;57.636;18.304;2022-07-23T15:09:26;5.72;;;5.20;;
12691;SDS011;6410;57.636;18.304;2022-07-23T15:11:55;5.50;;;4.90;;
12691;SDS011;6410;57.636;18.304;2022-07-23T15:14:23;4.57;;;4.18;;
12691;SDS011;6410;57.636;18.304;2022-07-23T15:16:56;5.53;;;4.97;;
12691;SDS011;6410;57.636;18.304;2022-07-23T15:19:24;5.28;;;4.88;;
12691;SDS011;6410;57.636;18.304;2022-07-23T15:21:56;5.47;;;5.00;;
12691;SDS011;6410;57.636;18.304;2022-07-23T15:24:27;4.38;;;4.10;;
12691;SDS011;6410;57.636;18.304;2022-07-23T15:26:56;4.15;;;3.85;;
12691;SDS011;6410;57.636;18.304;2022-07-23T15:29:24;4.90;;;4.50;;
12691;SDS011;6410;57.636;18.304;2022-07-23T15:31:55;4.50;;;4.10;;